createdAt,value
2023-03-22T00:12:52.319Z,7.61
2023-03-22T00:27:55.844Z,7.86
2023-03-22T00:42:59.190Z,8.49
2023-03-22T00:58:04.295Z,8.90
2023-03-22T01:13:08.474Z,9.02
2023-03-22T01:28:11.756Z,9.18
2023-03-22T01:43:17.488Z,9.32
2023-03-22T01:58:21.418Z,9.42
2023-03-22T02:13:59.260Z,9.38
2023-03-22T02:29:46.571Z,9.16
2023-03-22T02:45:11.571Z,9.12
2023-03-22T03:00:18.817Z,9.19
2023-03-22T03:15:23.956Z,9.22
2023-03-22T03:30:41.022Z,9.14
2023-03-22T03:45:44.935Z,9.09
2023-03-22T04:00:49.588Z,9.13
2023-03-22T04:16:11.456Z,9.17
2023-03-22T04:31:14.833Z,9.13
2023-03-22T04:46:25.987Z,9.32
2023-03-22T05:01:36.080Z,9.58
2023-03-22T05:16:46.629Z,9.54
2023-03-22T05:31:50.068Z,9.61
2023-03-22T05:46:53.652Z,9.67
2023-03-22T06:02:08.692Z,9.90
2023-03-22T06:17:12.285Z,10.07
2023-03-22T06:32:17.143Z,10.07
2023-03-22T06:47:20.808Z,10.14
2023-03-22T07:02:32.562Z,10.12
2023-03-22T07:17:50.919Z,10.22
2023-03-22T07:32:54.211Z,10.34
2023-03-22T07:47:57.660Z,10.21
2023-03-22T08:03:22.429Z,10.20
2023-03-22T08:18:34.263Z,10.28
2023-03-22T08:33:37.851Z,10.45
2023-03-22T08:48:41.852Z,10.68
2023-03-22T09:03:51.315Z,10.96
2023-03-22T09:18:54.986Z,11.35
2023-03-22T09:33:59.102Z,11.65
2023-03-22T09:49:08.129Z,12.03
2023-03-22T10:04:34.849Z,11.93
2023-03-22T10:20:00.303Z,12.09
2023-03-22T10:35:03.871Z,12.41
2023-03-22T10:50:24.250Z,12.51
2023-03-22T11:05:30.425Z,12.58
2023-03-22T11:20:35.087Z,12.77
2023-03-22T11:35:39.995Z,13.02
2023-03-22T11:50:45.049Z,13.42
2023-03-22T12:05:52.550Z,13.58
2023-03-22T12:20:58.542Z,13.67
2023-03-22T12:36:07.252Z,13.91
2023-03-22T12:51:13.281Z,14.00
2023-03-22T13:06:55.103Z,14.21
2023-03-22T13:22:19.447Z,14.58
2023-03-22T13:37:46.172Z,15.13
2023-03-22T13:53:08.187Z,15.00
2023-03-22T14:08:21.868Z,15.36
